sensor_id;sensor_type;location;lat;lon;timestamp;temperature;humidity
314;DHT22;143;51.634;7.112;2022-10-16T00:00:56;14.80;1.00
314;DHT22;143;51.634;7.112;2022-10-16T00:03:22;14.80;1.00
314;DHT22;143;51.634;7.112;2022-10-16T00:05:48;14.80;1.00
314;DHT22;143;51.634;7.112;2022-10-16T00:08:14;14.80;1.00
314;DHT22;143;51.634;7.112;2022-10-16T00:10:40;14.80;1.00
314;DHT22;143;51.634;7.112;2022-10-16T00:13:06;14.80;1.00
314;DHT22;143;51.634;7.112;2022-10-16T00:15:36;14.80;1.00
314;DHT22;143;51.634;7.112;2022-10-16T00:18:03;14.80;1.00
314;DHT22;143;51.634;7.112;2022-10-16T00:20:30;14.80;1.00
314;DHT22;143;51.634;7.112;2022-10-16T00:22:58;14.70;1.00
314;DHT22;143;51.634;7.112;2022-10-16T00:25:24;14.70;1.00
314;DHT22;143;51.634;7.112;2022-10-16T00:27:50;14.70;1.00
314;DHT22;143;51.634;7.112;2022-10-16T00:30:16;14.70;1.00
314;DHT22;143;51.634;7.112;2022-10-16T00:32:41;14.70;1.00
314;DHT22;143;51.634;7.112;2022-10-16T00:35:07;14.60;1.00
314;DHT22;143;51.634;7.112;2022-10-16T00:37:33;14.70;1.00
314;DHT22;143;51.634;7.112;2022-10-16T00:39:58;14.60;1.00
314;DHT22;143;51.634;7.112;2022-10-16T00:42:24;14.60;1.00
314;DHT22;143;51.634;7.112;2022-10-16T00:44:55;14.60;1.00
314;DHT22;143;51.634;7.112;2022-10-16T00:47:37;14.60;1.00
314;DHT22;143;51.634;7.112;2022-10-16T00:50:13;14.60;1.00
314;DHT22;143;51.634;7.112;2022-10-16T00:52:44;14.60;1.00
314;DHT22;143;51.634;7.112;2022-10-16T00:55:11;14.50;1.00
314;DHT22;143;51.634;7.112;2022-10-16T00:57:37;14.50;1.00
314;DHT22;143;51.634;7.112;2022-10-16T01:00:07;14.50;1.00
314;DHT22;143;51.634;7.112;2022-10-16T01:02:33;14.50;1.00
314;DHT22;143;51.634;7.112;2022-10-16T01:04:59;14.50;1.00
314;DHT22;143;51.634;7.112;2022-10-16T01:07:57;14.50;1.00
314;DHT22;143;51.634;7.112;2022-10-16T01:10:35;14.50;1.00
314;DHT22;143;51.634;7.112;2022-10-16T01:13:08;14.50;1.00
314;DHT22;143;51.634;7.112;2022-10-16T01:15:42;14.50;1.00
314;DHT22;143;51.634;7.112;2022-10-16T01:18:39;14.50;1.00
314;DHT22;143;51.634;7.112;2022-10-16T01:21:27;14.50;1.00
314;DHT22;143;51.634;7.112;2022-10-16T01:24:16;14.50;1.00
314;DHT22;143;51.634;7.112;2022-10-16T01:32:42;14.50;1.00
314;DHT22;143;51.634;7.112;2022-10-16T01:38:15;14.60;1.00
314;DHT22;143;51.634;7.112;2022-10-16T01:40:45;14.60;1.00
314;DHT22;143;51.634;7.112;2022-10-16T01:43:15;14.60;1.00
314;DHT22;143;51.634;7.112;2022-10-16T01:45:43;14.60;1.00
314;DHT22;143;51.634;7.112;2022-10-16T01:48:12;14.60;1.00
314;DHT22;143;51.634;7.112;2022-10-16T01:50:41;14.60;1.00
314;DHT22;143;51.634;7.112;2022-10-16T01:53:11;14.60;1.00
314;DHT22;143;51.634;7.112;2022-10-16T01:55:40;14.60;1.00
314;DHT22;143;51.634;7.112;2022-10-16T01:58:12;14.50;1.00
314;DHT22;143;51.634;7.112;2022-10-16T02:00:40;14.50;1.00
314;DHT22;143;51.634;7.112;2022-10-16T02:03:07;14.50;1.00
314;DHT22;143;51.634;7.112;2022-10-16T02:05:54;14.50;1.00
314;DHT22;143;51.634;7.112;2022-10-16T02:08:22;14.40;1.00
314;DHT22;143;51.634;7.112;2022-10-16T02:10:49;14.30;1.00
314;DHT22;143;51.634;7.112;2022-10-16T02:13:22;14.40;1.00
314;DHT22;143;51.634;7.112;2022-10-16T02:15:49;14.30;1.00
314;DHT22;143;51.634;7.112;2022-10-16T02:18:15;14.30;1.00
314;DHT22;143;51.634;7.112;2022-10-16T02:20:59;14.30;1.00
314;DHT22;143;51.634;7.112;2022-10-16T02:26:12;14.30;1.00
314;DHT22;143;51.634;7.112;2022-10-16T02:28:44;14.30;1.00
314;DHT22;143;51.634;7.112;2022-10-16T02:31:13;14.30;1.00
314;DHT22;143;51.634;7.112;2022-10-16T02:33:43;14.30;1.00
314;DHT22;143;51.634;7.112;2022-10-16T02:36:10;14.30;1.00
314;DHT22;143;51.634;7.112;2022-10-16T02:38:36;14.30;1.00
314;DHT22;143;51.634;7.112;2022-10-16T02:41:02;14.30;1.00
314;DHT22;143;51.634;7.112;2022-10-16T02:43:28;14.30;1.00
314;DHT22;143;51.634;7.112;2022-10-16T02:45:54;14.40;1.00
314;DHT22;143;51.634;7.112;2022-10-16T02:48:21;14.40;1.00
314;DHT22;143;51.634;7.112;2022-10-16T02:50:46;14.40;1.00
314;DHT22;143;51.634;7.112;2022-10-16T02:53:12;14.40;1.00
314;DHT22;143;51.634;7.112;2022-10-16T02:55:37;14.50;1.00
314;DHT22;143;51.634;7.112;2022-10-16T02:58:03;14.40;1.00
314;DHT22;143;51.634;7.112;2022-10-16T03:00:29;14.40;1.00
314;DHT22;143;51.634;7.112;2022-10-16T03:02:54;14.40;1.00
314;DHT22;143;51.634;7.112;2022-10-16T03:05:20;14.40;1.00
314;DHT22;143;51.634;7.112;2022-10-16T03:07:46;14.40;1.00
314;DHT22;143;51.634;7.112;2022-10-16T03:10:11;14.40;1.00
314;DHT22;143;51.634;7.112;2022-10-16T03:12:37;14.40;1.00
314;DHT22;143;51.634;7.112;2022-10-16T03:15:03;14.40;1.00
314;DHT22;143;51.634;7.112;2022-10-16T03:17:29;14.40;1.00
314;DHT22;143;51.634;7.112;2022-10-16T03:19:55;14.40;1.00
314;DHT22;143;51.634;7.112;2022-10-16T03:22:20;14.40;1.00
314;DHT22;143;51.634;7.112;2022-10-16T03:24:46;14.40;1.00
314;DHT22;143;51.634;7.112;2022-10-16T03:27:12;14.40;1.00
314;DHT22;143;51.634;7.112;2022-10-16T03:29:37;14.40;1.00
314;DHT22;143;51.634;7.112;2022-10-16T03:32:03;14.40;1.00
314;DHT22;143;51.634;7.112;2022-10-16T03:34:29;14.40;1.00
314;DHT22;143;51.634;7.112;2022-10-16T03:36:55;14.40;1.00
314;DHT22;143;51.634;7.112;2022-10-16T03:39:20;14.40;1.00
314;DHT22;143;51.634;7.112;2022-10-16T03:41:46;14.50;1.00
314;DHT22;143;51.634;7.112;2022-10-16T03:44:12;14.50;1.00
314;DHT22;143;51.634;7.112;2022-10-16T03:46:38;14.50;1.00
314;DHT22;143;51.634;7.112;2022-10-16T03:49:03;14.50;1.00
314;DHT22;143;51.634;7.112;2022-10-16T03:51:29;14.50;1.00
314;DHT22;143;51.634;7.112;2022-10-16T03:53:55;14.50;1.00
314;DHT22;143;51.634;7.112;2022-10-16T03:56:20;14.50;1.00
314;DHT22;143;51.634;7.112;2022-10-16T03:58:46;14.50;1.00
314;DHT22;143;51.634;7.112;2022-10-16T04:01:12;14.60;1.00
314;DHT22;143;51.634;7.112;2022-10-16T04:03:37;14.50;1.00
314;DHT22;143;51.634;7.112;2022-10-16T04:06:03;14.60;1.00
314;DHT22;143;51.634;7.112;2022-10-16T04:08:29;14.50;1.00
314;DHT22;143;51.634;7.112;2022-10-16T04:10:54;14.60;1.00
314;DHT22;143;51.634;7.112;2022-10-16T04:13:20;14.50;1.00
314;DHT22;143;51.634;7.112;2022-10-16T04:15:46;14.50;1.00
314;DHT22;143;51.634;7.112;2022-10-16T04:18:11;14.50;1.00
314;DHT22;143;51.634;7.112;2022-10-16T04:20:37;14.50;1.00
314;DHT22;143;51.634;7.112;2022-10-16T04:23:03;14.50;1.00
314;DHT22;143;51.634;7.112;2022-10-16T04:25:30;14.50;1.00
314;DHT22;143;51.634;7.112;2022-10-16T04:27:56;14.50;1.00
314;DHT22;143;51.634;7.112;2022-10-16T04:30:22;14.50;1.00
314;DHT22;143;51.634;7.112;2022-10-16T04:32:51;14.50;1.00
314;DHT22;143;51.634;7.112;2022-10-16T04:35:18;14.50;1.00
314;DHT22;143;51.634;7.112;2022-10-16T04:37:44;14.50;1.00
314;DHT22;143;51.634;7.112;2022-10-16T04:40:10;14.50;1.00
314;DHT22;143;51.634;7.112;2022-10-16T04:42:36;14.50;1.00
314;DHT22;143;51.634;7.112;2022-10-16T04:45:03;14.50;1.00
314;DHT22;143;51.634;7.112;2022-10-16T04:47:29;14.50;1.00
314;DHT22;143;51.634;7.112;2022-10-16T04:49:55;14.50;1.00
314;DHT22;143;51.634;7.112;2022-10-16T04:52:22;14.40;1.00
314;DHT22;143;51.634;7.112;2022-10-16T04:54:50;14.40;1.00
314;DHT22;143;51.634;7.112;2022-10-16T04:57:16;14.50;1.00
314;DHT22;143;51.634;7.112;2022-10-16T04:59:42;14.50;1.00
314;DHT22;143;51.634;7.112;2022-10-16T05:02:08;14.40;1.00
314;DHT22;143;51.634;7.112;2022-10-16T05:04:33;14.40;1.00
314;DHT22;143;51.634;7.112;2022-10-16T05:06:59;14.40;1.00
314;DHT22;143;51.634;7.112;2022-10-16T05:09:25;14.50;1.00
314;DHT22;143;51.634;7.112;2022-10-16T05:11:51;14.40;1.00
314;DHT22;143;51.634;7.112;2022-10-16T05:14:17;14.40;1.00
314;DHT22;143;51.634;7.112;2022-10-16T05:16:42;14.40;1.00
314;DHT22;143;51.634;7.112;2022-10-16T05:19:08;14.50;1.00
314;DHT22;143;51.634;7.112;2022-10-16T05:21:34;14.40;1.00
314;DHT22;143;51.634;7.112;2022-10-16T05:23:59;14.40;1.00
314;DHT22;143;51.634;7.112;2022-10-16T05:26:25;14.40;1.00
314;DHT22;143;51.634;7.112;2022-10-16T05:28:51;14.40;1.00
314;DHT22;143;51.634;7.112;2022-10-16T05:31:16;14.40;1.00
314;DHT22;143;51.634;7.112;2022-10-16T05:33:42;14.40;1.00
314;DHT22;143;51.634;7.112;2022-10-16T05:36:09;14.40;1.00
314;DHT22;143;51.634;7.112;2022-10-16T05:38:36;14.40;1.00
314;DHT22;143;51.634;7.112;2022-10-16T05:41:03;14.40;1.00
314;DHT22;143;51.634;7.112;2022-10-16T05:43:29;14.40;1.00
314;DHT22;143;51.634;7.112;2022-10-16T05:45:57;14.40;1.00
314;DHT22;143;51.634;7.112;2022-10-16T05:48:23;14.40;1.00
314;DHT22;143;51.634;7.112;2022-10-16T05:50:55;14.30;1.00
314;DHT22;143;51.634;7.112;2022-10-16T05:53:21;14.30;1.00
314;DHT22;143;51.634;7.112;2022-10-16T05:55:57;14.40;1.00
314;DHT22;143;51.634;7.112;2022-10-16T05:58:24;14.40;1.00
314;DHT22;143;51.634;7.112;2022-10-16T06:00:58;14.40;1.00
314;DHT22;143;51.634;7.112;2022-10-16T06:03:24;14.40;1.00
314;DHT22;143;51.634;7.112;2022-10-16T06:05:50;14.40;1.00
314;DHT22;143;51.634;7.112;2022-10-16T06:08:16;14.40;1.00
314;DHT22;143;51.634;7.112;2022-10-16T06:10:43;14.40;1.00
314;DHT22;143;51.634;7.112;2022-10-16T06:13:10;14.30;1.00
314;DHT22;143;51.634;7.112;2022-10-16T06:15:36;14.30;1.00
314;DHT22;143;51.634;7.112;2022-10-16T06:18:01;14.30;1.00
314;DHT22;143;51.634;7.112;2022-10-16T06:20:27;14.30;1.00
314;DHT22;143;51.634;7.112;2022-10-16T06:22:53;14.30;1.00
314;DHT22;143;51.634;7.112;2022-10-16T06:25:18;14.30;1.00
314;DHT22;143;51.634;7.112;2022-10-16T06:27:44;14.30;1.00
314;DHT22;143;51.634;7.112;2022-10-16T06:30:10;14.30;1.00
314;DHT22;143;51.634;7.112;2022-10-16T06:32:36;14.30;1.00
314;DHT22;143;51.634;7.112;2022-10-16T06:35:01;14.30;1.00
314;DHT22;143;51.634;7.112;2022-10-16T06:37:27;14.30;1.00
314;DHT22;143;51.634;7.112;2022-10-16T06:39:53;14.30;1.00
314;DHT22;143;51.634;7.112;2022-10-16T06:42:19;14.30;1.00
314;DHT22;143;51.634;7.112;2022-10-16T06:44:45;14.30;1.00
314;DHT22;143;51.634;7.112;2022-10-16T06:47:10;14.30;1.00
314;DHT22;143;51.634;7.112;2022-10-16T06:49:36;14.30;1.00
314;DHT22;143;51.634;7.112;2022-10-16T06:52:02;14.30;1.00
314;DHT22;143;51.634;7.112;2022-10-16T06:54:28;14.30;1.00
314;DHT22;143;51.634;7.112;2022-10-16T06:56:54;14.40;1.00
314;DHT22;143;51.634;7.112;2022-10-16T06:59:21;14.40;1.00
314;DHT22;143;51.634;7.112;2022-10-16T07:01:46;14.40;1.00
314;DHT22;143;51.634;7.112;2022-10-16T07:04:12;14.40;1.00
314;DHT22;143;51.634;7.112;2022-10-16T07:06:39;14.40;1.00
314;DHT22;143;51.634;7.112;2022-10-16T07:09:06;14.40;1.00
314;DHT22;143;51.634;7.112;2022-10-16T07:11:34;14.40;1.00
314;DHT22;143;51.634;7.112;2022-10-16T07:14:00;14.40;1.00
314;DHT22;143;51.634;7.112;2022-10-16T07:16:28;14.40;1.00
314;DHT22;143;51.634;7.112;2022-10-16T07:18:58;14.40;1.00
314;DHT22;143;51.634;7.112;2022-10-16T07:21:26;14.40;1.00
314;DHT22;143;51.634;7.112;2022-10-16T07:23:56;14.40;1.00
314;DHT22;143;51.634;7.112;2022-10-16T07:26:23;14.40;1.00
314;DHT22;143;51.634;7.112;2022-10-16T07:28:49;14.40;1.00
314;DHT22;143;51.634;7.112;2022-10-16T07:31:16;14.40;1.00
314;DHT22;143;51.634;7.112;2022-10-16T07:33:43;14.50;1.00
314;DHT22;143;51.634;7.112;2022-10-16T07:36:10;14.50;1.00
314;DHT22;143;51.634;7.112;2022-10-16T07:38:36;14.50;1.00
314;DHT22;143;51.634;7.112;2022-10-16T07:41:05;14.60;1.00
314;DHT22;143;51.634;7.112;2022-10-16T07:43:31;14.70;1.00
314;DHT22;143;51.634;7.112;2022-10-16T07:45:58;14.70;1.00
314;DHT22;143;51.634;7.112;2022-10-16T07:48:26;14.80;1.00
314;DHT22;143;51.634;7.112;2022-10-16T07:50:52;14.90;1.00
314;DHT22;143;51.634;7.112;2022-10-16T07:53:18;15.00;1.00
314;DHT22;143;51.634;7.112;2022-10-16T07:55:43;15.00;1.00
314;DHT22;143;51.634;7.112;2022-10-16T07:58:09;15.10;1.00
314;DHT22;143;51.634;7.112;2022-10-16T08:00:36;15.20;1.00
314;DHT22;143;51.634;7.112;2022-10-16T08:03:02;15.20;1.00
314;DHT22;143;51.634;7.112;2022-10-16T08:05:29;15.30;1.00
314;DHT22;143;51.634;7.112;2022-10-16T08:07:56;15.40;1.00
314;DHT22;143;51.634;7.112;2022-10-16T08:10:24;15.40;1.00
314;DHT22;143;51.634;7.112;2022-10-16T08:12:50;15.50;1.00
314;DHT22;143;51.634;7.112;2022-10-16T08:15:16;15.50;1.00
314;DHT22;143;51.634;7.112;2022-10-16T08:17:42;15.50;1.00
314;DHT22;143;51.634;7.112;2022-10-16T08:20:09;15.60;1.00
314;DHT22;143;51.634;7.112;2022-10-16T08:22:35;15.70;1.00
314;DHT22;143;51.634;7.112;2022-10-16T08:25:00;15.70;1.00
314;DHT22;143;51.634;7.112;2022-10-16T08:27:33;15.70;1.00
314;DHT22;143;51.634;7.112;2022-10-16T08:29:59;15.80;1.00
314;DHT22;143;51.634;7.112;2022-10-16T08:32:25;15.80;1.00
314;DHT22;143;51.634;7.112;2022-10-16T08:34:50;15.90;1.00
314;DHT22;143;51.634;7.112;2022-10-16T08:37:16;15.90;1.00
314;DHT22;143;51.634;7.112;2022-10-16T08:39:42;15.90;1.00
314;DHT22;143;51.634;7.112;2022-10-16T08:45:02;16.10;1.00
314;DHT22;143;51.634;7.112;2022-10-16T08:50:48;16.30;1.00
314;DHT22;143;51.634;7.112;2022-10-16T08:53:20;16.40;1.00
314;DHT22;143;51.634;7.112;2022-10-16T08:55:51;16.50;1.00
314;DHT22;143;51.634;7.112;2022-10-16T08:58:23;16.60;1.00
314;DHT22;143;51.634;7.112;2022-10-16T09:00:56;16.70;1.00
314;DHT22;143;51.634;7.112;2022-10-16T09:06:29;16.90;1.00
314;DHT22;143;51.634;7.112;2022-10-16T09:12:18;17.00;1.00
314;DHT22;143;51.634;7.112;2022-10-16T09:17:41;17.20;1.00
314;DHT22;143;51.634;7.112;2022-10-16T09:22:45;17.20;1.00
314;DHT22;143;51.634;7.112;2022-10-16T09:25:17;17.20;1.00
314;DHT22;143;51.634;7.112;2022-10-16T09:27:46;17.30;1.00
314;DHT22;143;51.634;7.112;2022-10-16T09:30:20;17.40;1.00
314;DHT22;143;51.634;7.112;2022-10-16T09:32:49;17.60;1.00
314;DHT22;143;51.634;7.112;2022-10-16T09:35:20;17.60;1.00
314;DHT22;143;51.634;7.112;2022-10-16T09:37:51;17.70;1.00
314;DHT22;143;51.634;7.112;2022-10-16T09:40:36;17.70;1.00
314;DHT22;143;51.634;7.112;2022-10-16T09:45:56;17.90;1.00
314;DHT22;143;51.634;7.112;2022-10-16T09:48:26;18.00;1.00
314;DHT22;143;51.634;7.112;2022-10-16T09:51:01;18.10;1.00
314;DHT22;143;51.634;7.112;2022-10-16T09:53:58;18.10;1.00
314;DHT22;143;51.634;7.112;2022-10-16T09:56:29;18.10;1.00
314;DHT22;143;51.634;7.112;2022-10-16T09:58:57;18.20;1.00
314;DHT22;143;51.634;7.112;2022-10-16T10:01:35;18.30;99.90
314;DHT22;143;51.634;7.112;2022-10-16T10:04:03;18.40;99.90
314;DHT22;143;51.634;7.112;2022-10-16T10:06:34;18.40;99.90
314;DHT22;143;51.634;7.112;2022-10-16T10:09:20;18.50;99.90
314;DHT22;143;51.634;7.112;2022-10-16T10:12:03;18.60;99.90
314;DHT22;143;51.634;7.112;2022-10-16T10:14:39;18.80;99.90
314;DHT22;143;51.634;7.112;2022-10-16T10:19:48;19.40;99.90
314;DHT22;143;51.634;7.112;2022-10-16T10:22:30;19.80;99.90
314;DHT22;143;51.634;7.112;2022-10-16T10:27:43;20.50;99.90
314;DHT22;143;51.634;7.112;2022-10-16T10:30:23;20.60;99.90
314;DHT22;143;51.634;7.112;2022-10-16T10:38:38;20.60;99.90
314;DHT22;143;51.634;7.112;2022-10-16T10:41:23;20.60;99.90
314;DHT22;143;51.634;7.112;2022-10-16T10:46:45;21.00;95.10
314;DHT22;143;51.634;7.112;2022-10-16T10:51:52;21.00;40.50
314;DHT22;143;51.634;7.112;2022-10-16T10:54:41;21.20;58.70
314;DHT22;143;51.634;7.112;2022-10-16T11:05:13;21.90;1.00
314;DHT22;143;51.634;7.112;2022-10-16T11:07:54;21.70;1.00
314;DHT22;143;51.634;7.112;2022-10-16T11:10:25;21.50;1.00
314;DHT22;143;51.634;7.112;2022-10-16T11:13:04;21.40;1.00
314;DHT22;143;51.634;7.112;2022-10-16T11:15:36;21.40;1.00
314;DHT22;143;51.634;7.112;2022-10-16T11:18:08;21.40;1.00
314;DHT22;143;51.634;7.112;2022-10-16T11:20:50;21.40;1.00
314;DHT22;143;51.634;7.112;2022-10-16T11:23:42;21.30;1.00
314;DHT22;143;51.634;7.112;2022-10-16T11:26:24;21.00;1.00
314;DHT22;143;51.634;7.112;2022-10-16T11:28:54;20.80;1.00
314;DHT22;143;51.634;7.112;2022-10-16T11:31:36;20.60;1.00
314;DHT22;143;51.634;7.112;2022-10-16T11:36:56;20.40;1.00
314;DHT22;143;51.634;7.112;2022-10-16T11:41:59;20.30;1.00
314;DHT22;143;51.634;7.112;2022-10-16T11:44:51;20.30;1.00
314;DHT22;143;51.634;7.112;2022-10-16T11:47:48;20.30;1.00
314;DHT22;143;51.634;7.112;2022-10-16T11:50:24;20.20;1.00
314;DHT22;143;51.634;7.112;2022-10-16T11:55:41;20.20;1.00
314;DHT22;143;51.634;7.112;2022-10-16T11:58:09;20.30;1.00
314;DHT22;143;51.634;7.112;2022-10-16T12:03:55;20.80;1.00
314;DHT22;143;51.634;7.112;2022-10-16T12:06:40;21.30;1.00
314;DHT22;143;51.634;7.112;2022-10-16T12:09:27;21.70;1.00
314;DHT22;143;51.634;7.112;2022-10-16T12:11:54;22.30;1.00
314;DHT22;143;51.634;7.112;2022-10-16T12:14:36;22.70;1.00
314;DHT22;143;51.634;7.112;2022-10-16T12:17:03;22.70;1.00
314;DHT22;143;51.634;7.112;2022-10-16T12:19:31;22.80;1.00
314;DHT22;143;51.634;7.112;2022-10-16T12:22:01;22.70;1.00
314;DHT22;143;51.634;7.112;2022-10-16T12:24:37;22.50;1.00
314;DHT22;143;51.634;7.112;2022-10-16T12:27:05;22.40;1.00
314;DHT22;143;51.634;7.112;2022-10-16T12:29:42;22.20;1.00
314;DHT22;143;51.634;7.112;2022-10-16T12:32:32;22.10;1.00
314;DHT22;143;51.634;7.112;2022-10-16T12:35:00;21.90;1.00
314;DHT22;143;51.634;7.112;2022-10-16T12:39:55;21.80;1.00
314;DHT22;143;51.634;7.112;2022-10-16T12:44:54;21.70;1.00
314;DHT22;143;51.634;7.112;2022-10-16T12:49:55;21.50;1.00
314;DHT22;143;51.634;7.112;2022-10-16T12:52:26;21.40;1.00
314;DHT22;143;51.634;7.112;2022-10-16T12:54:56;21.40;1.00
314;DHT22;143;51.634;7.112;2022-10-16T13:00:53;21.70;1.00
314;DHT22;143;51.634;7.112;2022-10-16T13:09:08;22.10;1.00
314;DHT22;143;51.634;7.112;2022-10-16T13:11:44;22.30;1.00
314;DHT22;143;51.634;7.112;2022-10-16T13:23:15;22.80;1.00
314;DHT22;143;51.634;7.112;2022-10-16T13:25:53;22.80;1.00
314;DHT22;143;51.634;7.112;2022-10-16T13:28:27;22.80;1.00
314;DHT22;143;51.634;7.112;2022-10-16T13:30:57;22.80;1.00
314;DHT22;143;51.634;7.112;2022-10-16T13:35:54;22.60;1.00
314;DHT22;143;51.634;7.112;2022-10-16T13:38:28;22.60;1.00
314;DHT22;143;51.634;7.112;2022-10-16T13:40:56;22.60;1.00
314;DHT22;143;51.634;7.112;2022-10-16T13:43:32;22.60;1.00
314;DHT22;143;51.634;7.112;2022-10-16T13:46:07;22.60;1.00
314;DHT22;143;51.634;7.112;2022-10-16T13:48:33;22.50;1.00
314;DHT22;143;51.634;7.112;2022-10-16T13:53:35;22.30;1.00
314;DHT22;143;51.634;7.112;2022-10-16T13:56:03;22.30;1.00
314;DHT22;143;51.634;7.112;2022-10-16T13:58:30;22.10;1.00
314;DHT22;143;51.634;7.112;2022-10-16T14:03:24;21.90;1.00
314;DHT22;143;51.634;7.112;2022-10-16T14:05:53;21.70;1.00
314;DHT22;143;51.634;7.112;2022-10-16T14:08:20;21.50;1.00
314;DHT22;143;51.634;7.112;2022-10-16T14:10:52;21.40;1.00
314;DHT22;143;51.634;7.112;2022-10-16T14:13:23;21.30;1.00
314;DHT22;143;51.634;7.112;2022-10-16T14:15:52;21.30;1.00
314;DHT22;143;51.634;7.112;2022-10-16T14:18:24;21.20;1.00
314;DHT22;143;51.634;7.112;2022-10-16T14:20:51;21.20;1.00
314;DHT22;143;51.634;7.112;2022-10-16T14:23:29;21.20;1.00
314;DHT22;143;51.634;7.112;2022-10-16T14:26:06;21.20;1.00
314;DHT22;143;51.634;7.112;2022-10-16T14:28:41;21.20;1.00
314;DHT22;143;51.634;7.112;2022-10-16T14:31:27;21.10;1.00
314;DHT22;143;51.634;7.112;2022-10-16T14:33:54;21.20;1.00
314;DHT22;143;51.634;7.112;2022-10-16T14:36:20;21.10;1.00
314;DHT22;143;51.634;7.112;2022-10-16T14:41:22;20.90;1.00
314;DHT22;143;51.634;7.112;2022-10-16T14:43:53;20.80;1.00
314;DHT22;143;51.634;7.112;2022-10-16T14:46:22;20.70;1.00
314;DHT22;143;51.634;7.112;2022-10-16T14:48:57;20.50;1.00
314;DHT22;143;51.634;7.112;2022-10-16T14:51:24;20.50;1.00
314;DHT22;143;51.634;7.112;2022-10-16T14:53:50;20.50;1.00
314;DHT22;143;51.634;7.112;2022-10-16T14:56:24;20.40;1.00
314;DHT22;143;51.634;7.112;2022-10-16T14:58:51;20.50;1.00
314;DHT22;143;51.634;7.112;2022-10-16T15:01:17;20.50;1.00
314;DHT22;143;51.634;7.112;2022-10-16T15:03:43;20.50;1.00
314;DHT22;143;51.634;7.112;2022-10-16T15:06:14;20.40;1.00
314;DHT22;143;51.634;7.112;2022-10-16T15:08:41;20.40;1.00
314;DHT22;143;51.634;7.112;2022-10-16T15:11:15;20.40;1.00
314;DHT22;143;51.634;7.112;2022-10-16T15:13:42;20.30;1.00
314;DHT22;143;51.634;7.112;2022-10-16T15:16:11;20.30;1.00
314;DHT22;143;51.634;7.112;2022-10-16T15:18:37;20.30;1.00
314;DHT22;143;51.634;7.112;2022-10-16T15:21:03;20.30;1.00
314;DHT22;143;51.634;7.112;2022-10-16T15:23:29;20.20;1.00
314;DHT22;143;51.634;7.112;2022-10-16T15:25:55;20.20;1.00
314;DHT22;143;51.634;7.112;2022-10-16T15:28:22;20.20;1.00
314;DHT22;143;51.634;7.112;2022-10-16T15:30:53;20.10;1.00
314;DHT22;143;51.634;7.112;2022-10-16T15:33:21;20.10;1.00
314;DHT22;143;51.634;7.112;2022-10-16T15:35:52;20.10;1.00
314;DHT22;143;51.634;7.112;2022-10-16T15:38:20;20.10;1.00
314;DHT22;143;51.634;7.112;2022-10-16T15:40:47;20.10;1.00
314;DHT22;143;51.634;7.112;2022-10-16T15:43:13;20.00;1.00
314;DHT22;143;51.634;7.112;2022-10-16T15:45:39;20.00;1.00
314;DHT22;143;51.634;7.112;2022-10-16T15:48:05;20.00;1.00
314;DHT22;143;51.634;7.112;2022-10-16T15:50:32;19.90;1.00
314;DHT22;143;51.634;7.112;2022-10-16T15:52:58;19.90;1.00
314;DHT22;143;51.634;7.112;2022-10-16T15:55:24;19.90;1.00
314;DHT22;143;51.634;7.112;2022-10-16T15:57:49;19.90;1.00
314;DHT22;143;51.634;7.112;2022-10-16T16:00:18;19.80;1.00
314;DHT22;143;51.634;7.112;2022-10-16T16:02:51;19.80;1.00
314;DHT22;143;51.634;7.112;2022-10-16T16:05:18;19.80;1.00
314;DHT22;143;51.634;7.112;2022-10-16T16:07:43;19.70;16.70
314;DHT22;143;51.634;7.112;2022-10-16T16:10:10;19.70;37.20
314;DHT22;143;51.634;7.112;2022-10-16T16:12:37;19.60;55.70
314;DHT22;143;51.634;7.112;2022-10-16T16:15:04;19.60;81.10
314;DHT22;143;51.634;7.112;2022-10-16T16:17:31;19.50;98.80
314;DHT22;143;51.634;7.112;2022-10-16T16:19:56;19.50;99.90
314;DHT22;143;51.634;7.112;2022-10-16T16:22:22;19.40;99.90
314;DHT22;143;51.634;7.112;2022-10-16T16:24:48;19.30;97.50
314;DHT22;143;51.634;7.112;2022-10-16T16:27:13;19.30;98.40
314;DHT22;143;51.634;7.112;2022-10-16T16:29:39;19.20;99.90
314;DHT22;143;51.634;7.112;2022-10-16T16:32:05;19.10;99.90
314;DHT22;143;51.634;7.112;2022-10-16T16:34:31;19.10;99.90
314;DHT22;143;51.634;7.112;2022-10-16T16:36:57;19.00;99.90
314;DHT22;143;51.634;7.112;2022-10-16T16:39:23;18.90;99.90
314;DHT22;143;51.634;7.112;2022-10-16T16:41:49;18.90;99.90
314;DHT22;143;51.634;7.112;2022-10-16T16:44:15;18.80;99.90
314;DHT22;143;51.634;7.112;2022-10-16T16:46:42;18.70;99.90
314;DHT22;143;51.634;7.112;2022-10-16T16:49:12;18.60;99.90
314;DHT22;143;51.634;7.112;2022-10-16T16:51:39;18.60;99.90
314;DHT22;143;51.634;7.112;2022-10-16T16:54:05;18.50;99.90
314;DHT22;143;51.634;7.112;2022-10-16T16:56:32;18.50;99.90
314;DHT22;143;51.634;7.112;2022-10-16T16:58:58;18.40;99.90
314;DHT22;143;51.634;7.112;2022-10-16T17:01:26;18.30;99.90
314;DHT22;143;51.634;7.112;2022-10-16T17:03:53;18.30;99.90
314;DHT22;143;51.634;7.112;2022-10-16T17:06:21;18.20;99.90
314;DHT22;143;51.634;7.112;2022-10-16T17:08:48;18.20;99.90
314;DHT22;143;51.634;7.112;2022-10-16T17:11:16;18.20;99.90
314;DHT22;143;51.634;7.112;2022-10-16T17:13:42;18.10;99.90
314;DHT22;143;51.634;7.112;2022-10-16T17:16:08;18.00;99.90
314;DHT22;143;51.634;7.112;2022-10-16T17:18:34;18.00;99.90
314;DHT22;143;51.634;7.112;2022-10-16T17:21:05;18.00;99.90
314;DHT22;143;51.634;7.112;2022-10-16T17:23:31;18.00;99.90
314;DHT22;143;51.634;7.112;2022-10-16T17:26:12;17.90;99.90
314;DHT22;143;51.634;7.112;2022-10-16T17:28:38;17.90;99.90
314;DHT22;143;51.634;7.112;2022-10-16T17:31:15;17.80;99.90
314;DHT22;143;51.634;7.112;2022-10-16T17:33:42;17.80;99.90
314;DHT22;143;51.634;7.112;2022-10-16T17:36:08;17.80;99.90
314;DHT22;143;51.634;7.112;2022-10-16T17:38:35;17.70;99.90
314;DHT22;143;51.634;7.112;2022-10-16T17:41:22;17.70;99.90
314;DHT22;143;51.634;7.112;2022-10-16T17:43:49;17.60;99.90
314;DHT22;143;51.634;7.112;2022-10-16T17:46:17;17.60;1.00
314;DHT22;143;51.634;7.112;2022-10-16T17:48:45;17.60;1.00
314;DHT22;143;51.634;7.112;2022-10-16T17:51:15;17.50;1.00
314;DHT22;143;51.634;7.112;2022-10-16T17:53:41;17.50;1.00
314;DHT22;143;51.634;7.112;2022-10-16T17:56:10;17.50;1.00
314;DHT22;143;51.634;7.112;2022-10-16T17:58:36;17.50;1.00
314;DHT22;143;51.634;7.112;2022-10-16T18:01:17;17.40;1.00
314;DHT22;143;51.634;7.112;2022-10-16T18:03:43;17.40;1.00
314;DHT22;143;51.634;7.112;2022-10-16T18:06:12;17.40;1.00
314;DHT22;143;51.634;7.112;2022-10-16T18:08:38;17.30;1.00
314;DHT22;143;51.634;7.112;2022-10-16T18:11:04;17.30;1.00
314;DHT22;143;51.634;7.112;2022-10-16T18:13:30;17.30;1.00
314;DHT22;143;51.634;7.112;2022-10-16T18:16:05;17.30;1.00
314;DHT22;143;51.634;7.112;2022-10-16T18:18:31;17.30;1.00
314;DHT22;143;51.634;7.112;2022-10-16T18:20:58;17.30;1.00
314;DHT22;143;51.634;7.112;2022-10-16T18:23:24;17.20;1.00
314;DHT22;143;51.634;7.112;2022-10-16T18:25:50;17.20;1.00
314;DHT22;143;51.634;7.112;2022-10-16T18:28:16;17.20;1.00
314;DHT22;143;51.634;7.112;2022-10-16T18:30:42;17.20;1.00
314;DHT22;143;51.634;7.112;2022-10-16T18:33:08;17.10;1.00
314;DHT22;143;51.634;7.112;2022-10-16T18:35:37;17.10;1.00
314;DHT22;143;51.634;7.112;2022-10-16T18:38:03;17.20;1.00
314;DHT22;143;51.634;7.112;2022-10-16T18:40:28;17.10;1.00
314;DHT22;143;51.634;7.112;2022-10-16T18:42:54;17.10;1.00
314;DHT22;143;51.634;7.112;2022-10-16T18:45:20;17.10;1.00